Glenarm, Illinois
Current Conditions -  °F | °C
As of 3:52 AM on Wednesday 26 Nov 2014 (Local Time) from KSPI Reporting Station
Clear Clear  
Wind Chill: 18°   Ceiling: Unl
Heat Index: 25°   Visibility: 10mi
Dew Point: 23°   Wind: 6mph
Humidity: 92%   Direction: 130°SE
Pressure: 30.11"   Gusts: NA
Location:  39.62°N, 89.65°W
Report Text: KSPI 260952Z AUTO 13005KT 10SM CLR M04/M05 A3011 RMK AO2 SLP203 T10391050
Loading
Personal Weather Stations






























Interactive Weather Map New forecast layout! Learn more

10-Day Weather Forecast

Advertisements
Track Severe Weather on mobile